sensor_id;sensor_type;location;lat;lon;timestamp;temperature;humidity
71177;DHT22;58877;51.992;4.504;2022-12-18T00:01:46;-1.65;85.91
71177;DHT22;58877;51.992;4.504;2022-12-18T00:04:20;-1.68;85.81
71177;DHT22;58877;51.992;4.504;2022-12-18T00:06:46;-1.65;85.89
71177;DHT22;58877;51.992;4.504;2022-12-18T00:09:11;-1.58;85.73
71177;DHT22;58877;51.992;4.504;2022-12-18T00:11:37;-1.59;85.51
71177;DHT22;58877;51.992;4.504;2022-12-18T00:14:04;-1.54;85.64
71177;DHT22;58877;51.992;4.504;2022-12-18T00:16:30;-1.50;85.52
71177;DHT22;58877;51.992;4.504;2022-12-18T00:18:59;-1.47;85.45
71177;DHT22;58877;51.992;4.504;2022-12-18T00:21:26;-1.48;85.30
71177;DHT22;58877;51.992;4.504;2022-12-18T00:23:52;-1.55;85.46
71177;DHT22;58877;51.992;4.504;2022-12-18T00:26:23;-1.56;85.60
71177;DHT22;58877;51.992;4.504;2022-12-18T00:28:49;-1.54;85.66
71177;DHT22;58877;51.992;4.504;2022-12-18T00:31:21;-1.56;85.71
71177;DHT22;58877;51.992;4.504;2022-12-18T00:33:47;-1.54;85.61
71177;DHT22;58877;51.992;4.504;2022-12-18T00:36:18;-1.55;85.50
71177;DHT22;58877;51.992;4.504;2022-12-18T00:38:46;-1.58;85.50
71177;DHT22;58877;51.992;4.504;2022-12-18T00:41:14;-1.61;85.58
71177;DHT22;58877;51.992;4.504;2022-12-18T00:44:01;-1.58;85.49
71177;DHT22;58877;51.992;4.504;2022-12-18T00:46:27;-1.62;85.67
71177;DHT22;58877;51.992;4.504;2022-12-18T00:48:53;-1.59;85.89
71177;DHT22;58877;51.992;4.504;2022-12-18T00:51:18;-1.54;85.69
71177;DHT22;58877;51.992;4.504;2022-12-18T00:53:44;-1.56;85.67
71177;DHT22;58877;51.992;4.504;2022-12-18T00:56:09;-1.52;85.65
71177;DHT22;58877;51.992;4.504;2022-12-18T00:58:37;-1.50;85.39
71177;DHT22;58877;51.992;4.504;2022-12-18T01:01:05;-1.52;85.38
71177;DHT22;58877;51.992;4.504;2022-12-18T01:03:31;-1.54;85.33
71177;DHT22;58877;51.992;4.504;2022-12-18T01:05:57;-1.55;85.40
71177;DHT22;58877;51.992;4.504;2022-12-18T01:08:23;-1.54;85.34
71177;DHT22;58877;51.992;4.504;2022-12-18T01:10:48;-1.51;85.22
71177;DHT22;58877;51.992;4.504;2022-12-18T01:13:14;-1.51;85.11
71177;DHT22;58877;51.992;4.504;2022-12-18T01:15:40;-1.54;85.03
71177;DHT22;58877;51.992;4.504;2022-12-18T01:18:07;-1.52;85.16
71177;DHT22;58877;51.992;4.504;2022-12-18T01:20:33;-1.52;85.18
71177;DHT22;58877;51.992;4.504;2022-12-18T01:22:58;-1.55;85.18
71177;DHT22;58877;51.992;4.504;2022-12-18T01:25:24;-1.54;85.09
71177;DHT22;58877;51.992;4.504;2022-12-18T01:27:50;-1.62;85.13
71177;DHT22;58877;51.992;4.504;2022-12-18T01:30:16;-1.65;85.18
71177;DHT22;58877;51.992;4.504;2022-12-18T01:32:41;-1.62;85.36
71177;DHT22;58877;51.992;4.504;2022-12-18T01:35:08;-1.64;85.26
71177;DHT22;58877;51.992;4.504;2022-12-18T01:37:33;-1.64;85.20
71177;DHT22;58877;51.992;4.504;2022-12-18T01:39:59;-1.65;85.26
71177;DHT22;58877;51.992;4.504;2022-12-18T01:42:24;-1.65;85.27
71177;DHT22;58877;51.992;4.504;2022-12-18T01:45:37;-1.64;85.16
71177;DHT22;58877;51.992;4.504;2022-12-18T01:48:00;-1.62;85.13
71177;DHT22;58877;51.992;4.504;2022-12-18T01:50:37;-1.66;85.22
71177;DHT22;58877;51.992;4.504;2022-12-18T01:53:09;-1.64;85.35
71177;DHT22;58877;51.992;4.504;2022-12-18T01:55:44;-1.65;85.31
71177;DHT22;58877;51.992;4.504;2022-12-18T01:58:11;-1.65;85.38
71177;DHT22;58877;51.992;4.504;2022-12-18T02:00:37;-1.62;85.39
71177;DHT22;58877;51.992;4.504;2022-12-18T02:03:02;-1.61;85.58
71177;DHT22;58877;51.992;4.504;2022-12-18T02:08:22;-1.66;85.54
71177;DHT22;58877;51.992;4.504;2022-12-18T02:13:30;-1.65;85.48
71177;DHT22;58877;51.992;4.504;2022-12-18T02:16:23;-1.61;85.50
71177;DHT22;58877;51.992;4.504;2022-12-18T02:18:56;-1.59;85.45
71177;DHT22;58877;51.992;4.504;2022-12-18T02:21:36;-1.50;85.41
71177;DHT22;58877;51.992;4.504;2022-12-18T02:24:24;-1.47;84.97
71177;DHT22;58877;51.992;4.504;2022-12-18T02:27:05;-1.51;85.02
71177;DHT22;58877;51.992;4.504;2022-12-18T02:29:51;-1.52;84.98
71177;DHT22;58877;51.992;4.504;2022-12-18T02:32:31;-1.50;84.91
71177;DHT22;58877;51.992;4.504;2022-12-18T02:34:59;-1.50;84.95
71177;DHT22;58877;51.992;4.504;2022-12-18T02:37:30;-1.45;84.82
71177;DHT22;58877;51.992;4.504;2022-12-18T02:39:59;-1.44;84.88
71177;DHT22;58877;51.992;4.504;2022-12-18T02:42:26;-1.47;84.62
71177;DHT22;58877;51.992;4.504;2022-12-18T02:44:53;-1.51;84.62
71177;DHT22;58877;51.992;4.504;2022-12-18T02:47:28;-1.56;84.62
71177;DHT22;58877;51.992;4.504;2022-12-18T02:57:34;-1.86;84.87
71177;DHT22;58877;51.992;4.504;2022-12-18T03:00:14;-1.95;85.31
71177;DHT22;58877;51.992;4.504;2022-12-18T03:02:57;-1.95;85.47
71177;DHT22;58877;51.992;4.504;2022-12-18T03:05:36;-1.93;85.47
71177;DHT22;58877;51.992;4.504;2022-12-18T03:08:21;-1.95;85.31
71177;DHT22;58877;51.992;4.504;2022-12-18T03:11:01;-2.02;85.22
71177;DHT22;58877;51.992;4.504;2022-12-18T03:13:37;-2.05;85.38
71177;DHT22;58877;51.992;4.504;2022-12-18T03:16:08;-2.10;85.48
71177;DHT22;58877;51.992;4.504;2022-12-18T03:18:39;-2.16;85.62
71177;DHT22;58877;51.992;4.504;2022-12-18T03:21:11;-2.17;85.72
71177;DHT22;58877;51.992;4.504;2022-12-18T03:23:48;-2.19;85.59
71177;DHT22;58877;51.992;4.504;2022-12-18T03:26:19;-2.25;85.41
71177;DHT22;58877;51.992;4.504;2022-12-18T03:28:51;-2.30;85.48
71177;DHT22;58877;51.992;4.504;2022-12-18T03:31:22;-2.30;85.55
71177;DHT22;58877;51.992;4.504;2022-12-18T03:33:58;-2.25;85.51
71177;DHT22;58877;51.992;4.504;2022-12-18T03:36:24;-2.25;85.18
71177;DHT22;58877;51.992;4.504;2022-12-18T03:38:54;-2.27;85.01
71177;DHT22;58877;51.992;4.504;2022-12-18T03:41:47;-2.30;84.97
71177;DHT22;58877;51.992;4.504;2022-12-18T03:50:12;-2.27;84.92
71177;DHT22;58877;51.992;4.504;2022-12-18T03:55:36;-2.40;84.71
71177;DHT22;58877;51.992;4.504;2022-12-18T03:58:06;-2.43;84.83
71177;DHT22;58877;51.992;4.504;2022-12-18T04:00:34;-2.41;84.89
71177;DHT22;58877;51.992;4.504;2022-12-18T04:03:01;-2.46;84.73
71177;DHT22;58877;51.992;4.504;2022-12-18T04:05:30;-2.46;84.68
71177;DHT22;58877;51.992;4.504;2022-12-18T04:07:59;-2.50;84.68
71177;DHT22;58877;51.992;4.504;2022-12-18T04:10:25;-2.53;84.50
71177;DHT22;58877;51.992;4.504;2022-12-18T04:12:50;-2.54;84.56
71177;DHT22;58877;51.992;4.504;2022-12-18T04:15:16;-2.62;84.43
71177;DHT22;58877;51.992;4.504;2022-12-18T04:17:47;-2.70;84.45
71177;DHT22;58877;51.992;4.504;2022-12-18T04:20:14;-2.77;84.56
71177;DHT22;58877;51.992;4.504;2022-12-18T04:22:39;-2.77;84.60
71177;DHT22;58877;51.992;4.504;2022-12-18T04:25:05;-2.81;84.52
71177;DHT22;58877;51.992;4.504;2022-12-18T04:27:31;-2.78;84.50
71177;DHT22;58877;51.992;4.504;2022-12-18T04:29:57;-2.85;84.23
71177;DHT22;58877;51.992;4.504;2022-12-18T04:32:22;-2.89;84.13
71177;DHT22;58877;51.992;4.504;2022-12-18T04:34:48;-2.95;84.23
71177;DHT22;58877;51.992;4.504;2022-12-18T04:37:13;-2.98;84.17
71177;DHT22;58877;51.992;4.504;2022-12-18T04:39:39;-3.04;84.08
71177;DHT22;58877;51.992;4.504;2022-12-18T04:42:05;-3.05;84.26
71177;DHT22;58877;51.992;4.504;2022-12-18T04:44:31;-3.08;84.25
71177;DHT22;58877;51.992;4.504;2022-12-18T04:46:56;-3.11;84.15
71177;DHT22;58877;51.992;4.504;2022-12-18T04:49:22;-3.12;83.96
71177;DHT22;58877;51.992;4.504;2022-12-18T04:51:47;-3.12;84.06
71177;DHT22;58877;51.992;4.504;2022-12-18T04:54:13;-3.15;83.92
71177;DHT22;58877;51.992;4.504;2022-12-18T04:56:39;-3.18;83.97
71177;DHT22;58877;51.992;4.504;2022-12-18T04:59:05;-3.19;83.94
71177;DHT22;58877;51.992;4.504;2022-12-18T05:01:34;-3.18;83.73
71177;DHT22;58877;51.992;4.504;2022-12-18T05:04:03;-3.22;83.70
71177;DHT22;58877;51.992;4.504;2022-12-18T05:06:28;-3.23;83.62
71177;DHT22;58877;51.992;4.504;2022-12-18T05:08:54;-3.29;83.66
71177;DHT22;58877;51.992;4.504;2022-12-18T05:11:20;-3.29;83.76
71177;DHT22;58877;51.992;4.504;2022-12-18T05:13:46;-3.31;83.78
71177;DHT22;58877;51.992;4.504;2022-12-18T05:16:15;-3.28;83.79
71177;DHT22;58877;51.992;4.504;2022-12-18T05:18:41;-3.31;83.65
71177;DHT22;58877;51.992;4.504;2022-12-18T05:21:06;-3.34;83.73
71177;DHT22;58877;51.992;4.504;2022-12-18T05:23:32;-3.38;83.65
71177;DHT22;58877;51.992;4.504;2022-12-18T05:26:00;-3.34;83.69
71177;DHT22;58877;51.992;4.504;2022-12-18T05:28:27;-3.32;83.51
71177;DHT22;58877;51.992;4.504;2022-12-18T05:30:58;-3.35;83.52
71177;DHT22;58877;51.992;4.504;2022-12-18T05:33:26;-3.32;83.50
71177;DHT22;58877;51.992;4.504;2022-12-18T05:35:54;-3.32;83.61
71177;DHT22;58877;51.992;4.504;2022-12-18T05:38:21;-3.34;83.58
71177;DHT22;58877;51.992;4.504;2022-12-18T05:40:50;-3.35;83.51
71177;DHT22;58877;51.992;4.504;2022-12-18T05:43:16;-3.34;83.34
71177;DHT22;58877;51.992;4.504;2022-12-18T05:45:42;-3.35;83.44
71177;DHT22;58877;51.992;4.504;2022-12-18T05:48:08;-3.38;83.27
71177;DHT22;58877;51.992;4.504;2022-12-18T05:50:35;-3.36;83.13
71177;DHT22;58877;51.992;4.504;2022-12-18T05:53:02;-3.43;83.09
71177;DHT22;58877;51.992;4.504;2022-12-18T05:55:28;-3.45;83.00
71177;DHT22;58877;51.992;4.504;2022-12-18T05:57:53;-3.46;82.89
71177;DHT22;58877;51.992;4.504;2022-12-18T06:00:19;-3.50;82.95
71177;DHT22;58877;51.992;4.504;2022-12-18T06:02:48;-3.53;82.85
71177;DHT22;58877;51.992;4.504;2022-12-18T06:05:13;-3.59;82.88
71177;DHT22;58877;51.992;4.504;2022-12-18T06:07:39;-3.59;82.89
71177;DHT22;58877;51.992;4.504;2022-12-18T06:10:05;-3.59;82.89
71177;DHT22;58877;51.992;4.504;2022-12-18T06:12:31;-3.56;82.99
71177;DHT22;58877;51.992;4.504;2022-12-18T06:14:56;-3.59;82.95
71177;DHT22;58877;51.992;4.504;2022-12-18T06:17:22;-3.59;82.86
71177;DHT22;58877;51.992;4.504;2022-12-18T06:19:47;-3.57;82.88
71177;DHT22;58877;51.992;4.504;2022-12-18T06:22:13;-3.55;82.78
71177;DHT22;58877;51.992;4.504;2022-12-18T06:24:38;-3.57;82.71
71177;DHT22;58877;51.992;4.504;2022-12-18T06:27:04;-3.56;82.68
71177;DHT22;58877;51.992;4.504;2022-12-18T06:29:29;-3.57;82.72
71177;DHT22;58877;51.992;4.504;2022-12-18T06:31:55;-3.56;82.67
71177;DHT22;58877;51.992;4.504;2022-12-18T06:34:20;-3.57;82.45
71177;DHT22;58877;51.992;4.504;2022-12-18T06:36:46;-3.62;82.36
71177;DHT22;58877;51.992;4.504;2022-12-18T06:39:11;-3.64;82.57
71177;DHT22;58877;51.992;4.504;2022-12-18T06:41:37;-3.63;82.60
71177;DHT22;58877;51.992;4.504;2022-12-18T06:44:02;-3.69;82.51
71177;DHT22;58877;51.992;4.504;2022-12-18T06:46:28;-3.74;82.57
71177;DHT22;58877;51.992;4.504;2022-12-18T06:48:54;-3.73;82.55
71177;DHT22;58877;51.992;4.504;2022-12-18T06:51:22;-3.77;82.53
71177;DHT22;58877;51.992;4.504;2022-12-18T06:53:48;-3.81;82.45
71177;DHT22;58877;51.992;4.504;2022-12-18T06:56:15;-3.76;82.48
71177;DHT22;58877;51.992;4.504;2022-12-18T06:58:41;-3.80;82.39
71177;DHT22;58877;51.992;4.504;2022-12-18T07:01:10;-3.77;82.34
71177;DHT22;58877;51.992;4.504;2022-12-18T07:03:37;-3.79;82.28
71177;DHT22;58877;51.992;4.504;2022-12-18T07:06:03;-3.81;82.23
71177;DHT22;58877;51.992;4.504;2022-12-18T07:08:30;-3.76;82.13
71177;DHT22;58877;51.992;4.504;2022-12-18T07:10:55;-3.79;81.94
71177;DHT22;58877;51.992;4.504;2022-12-18T07:13:22;-3.79;82.02
71177;DHT22;58877;51.992;4.504;2022-12-18T07:15:47;-3.80;81.90
71177;DHT22;58877;51.992;4.504;2022-12-18T07:18:13;-3.86;82.01
71177;DHT22;58877;51.992;4.504;2022-12-18T07:20:38;-3.87;81.84
71177;DHT22;58877;51.992;4.504;2022-12-18T07:23:04;-3.90;82.01
71177;DHT22;58877;51.992;4.504;2022-12-18T07:25:36;-3.81;81.91
71177;DHT22;58877;51.992;4.504;2022-12-18T07:28:03;-3.81;81.93
71177;DHT22;58877;51.992;4.504;2022-12-18T07:30:29;-3.79;81.80
71177;DHT22;58877;51.992;4.504;2022-12-18T07:32:55;-3.76;81.88
71177;DHT22;58877;51.992;4.504;2022-12-18T07:35:20;-3.77;81.93
71177;DHT22;58877;51.992;4.504;2022-12-18T07:37:46;-3.74;81.87
71177;DHT22;58877;51.992;4.504;2022-12-18T07:40:12;-3.70;81.64
71177;DHT22;58877;51.992;4.504;2022-12-18T07:42:38;-3.73;81.53
71177;DHT22;58877;51.992;4.504;2022-12-18T07:45:04;-3.77;81.62
71177;DHT22;58877;51.992;4.504;2022-12-18T07:47:36;-3.76;81.77
71177;DHT22;58877;51.992;4.504;2022-12-18T07:50:03;-3.73;81.67
71177;DHT22;58877;51.992;4.504;2022-12-18T07:52:28;-3.71;81.53
71177;DHT22;58877;51.992;4.504;2022-12-18T07:54:54;-3.76;81.27
71177;DHT22;58877;51.992;4.504;2022-12-18T07:57:19;-3.76;81.52
71177;DHT22;58877;51.992;4.504;2022-12-18T07:59:45;-3.77;81.63
71177;DHT22;58877;51.992;4.504;2022-12-18T08:02:10;-3.76;81.63
71177;DHT22;58877;51.992;4.504;2022-12-18T08:04:36;-3.71;81.59
71177;DHT22;58877;51.992;4.504;2022-12-18T08:07:01;-3.69;81.33
71177;DHT22;58877;51.992;4.504;2022-12-18T08:09:27;-3.67;81.38
71177;DHT22;58877;51.992;4.504;2022-12-18T08:11:53;-3.62;81.19
71177;DHT22;58877;51.992;4.504;2022-12-18T08:14:18;-3.62;81.09
71177;DHT22;58877;51.992;4.504;2022-12-18T08:16:44;-3.57;80.99
71177;DHT22;58877;51.992;4.504;2022-12-18T08:19:10;-3.53;80.92
71177;DHT22;58877;51.992;4.504;2022-12-18T08:21:36;-3.49;80.95
71177;DHT22;58877;51.992;4.504;2022-12-18T08:24:02;-3.47;80.79
71177;DHT22;58877;51.992;4.504;2022-12-18T08:26:40;-3.46;80.68
71177;DHT22;58877;51.992;4.504;2022-12-18T08:29:06;-3.42;80.71
71177;DHT22;58877;51.992;4.504;2022-12-18T08:31:32;-3.39;80.76
71177;DHT22;58877;51.992;4.504;2022-12-18T08:33:58;-3.34;80.63
71177;DHT22;58877;51.992;4.504;2022-12-18T08:36:29;-3.32;80.54
71177;DHT22;58877;51.992;4.504;2022-12-18T08:38:56;-3.28;80.62
71177;DHT22;58877;51.992;4.504;2022-12-18T08:41:22;-3.23;80.54
71177;DHT22;58877;51.992;4.504;2022-12-18T08:43:48;-3.19;80.42
71177;DHT22;58877;51.992;4.504;2022-12-18T08:46:36;-3.16;80.50
71177;DHT22;58877;51.992;4.504;2022-12-18T08:49:03;-3.11;80.58
71177;DHT22;58877;51.992;4.504;2022-12-18T08:51:29;-3.02;80.52
71177;DHT22;58877;51.992;4.504;2022-12-18T08:53:54;-2.96;80.58
71177;DHT22;58877;51.992;4.504;2022-12-18T08:56:22;-2.89;80.20
71177;DHT22;58877;51.992;4.504;2022-12-18T08:58:52;-2.81;80.02
71177;DHT22;58877;51.992;4.504;2022-12-18T09:01:17;-2.77;79.86
71177;DHT22;58877;51.992;4.504;2022-12-18T09:03:43;-2.78;79.84
71177;DHT22;58877;51.992;4.504;2022-12-18T09:06:09;-2.75;79.92
71177;DHT22;58877;51.992;4.504;2022-12-18T09:08:34;-2.64;80.04
71177;DHT22;58877;51.992;4.504;2022-12-18T09:11:01;-2.61;79.94
71177;DHT22;58877;51.992;4.504;2022-12-18T09:13:27;-2.54;79.90
71177;DHT22;58877;51.992;4.504;2022-12-18T09:15:54;-2.51;79.95
71177;DHT22;58877;51.992;4.504;2022-12-18T09:18:22;-2.46;79.79
71177;DHT22;58877;51.992;4.504;2022-12-18T09:20:51;-2.47;79.62
71177;DHT22;58877;51.992;4.504;2022-12-18T09:23:19;-2.43;79.52
71177;DHT22;58877;51.992;4.504;2022-12-18T09:25:45;-2.40;79.64
71177;DHT22;58877;51.992;4.504;2022-12-18T09:28:18;-2.39;79.43
71177;DHT22;58877;51.992;4.504;2022-12-18T09:30:49;-2.39;79.74
71177;DHT22;58877;51.992;4.504;2022-12-18T09:33:16;-2.32;79.83
71177;DHT22;58877;51.992;4.504;2022-12-18T09:35:44;-2.27;79.69
71177;DHT22;58877;51.992;4.504;2022-12-18T09:38:15;-2.30;79.30
71177;DHT22;58877;51.992;4.504;2022-12-18T09:40:53;-2.29;79.77
71177;DHT22;58877;51.992;4.504;2022-12-18T09:43:48;-2.23;79.64
71177;DHT22;58877;51.992;4.504;2022-12-18T09:46:26;-2.17;79.56
71177;DHT22;58877;51.992;4.504;2022-12-18T09:48:59;-2.14;79.44
71177;DHT22;58877;51.992;4.504;2022-12-18T09:51:32;-2.14;79.40
71177;DHT22;58877;51.992;4.504;2022-12-18T09:54:11;-2.06;79.51
71177;DHT22;58877;51.992;4.504;2022-12-18T09:56:42;-1.99;79.52
71177;DHT22;58877;51.992;4.504;2022-12-18T09:59:20;-1.95;79.58
71177;DHT22;58877;51.992;4.504;2022-12-18T10:01:46;-1.87;79.35
71177;DHT22;58877;51.992;4.504;2022-12-18T10:04:11;-1.86;79.08
71177;DHT22;58877;51.992;4.504;2022-12-18T10:06:52;-1.82;79.28
71177;DHT22;58877;51.992;4.504;2022-12-18T10:09:32;-1.81;78.88
71177;DHT22;58877;51.992;4.504;2022-12-18T10:12:08;-1.76;79.17
71177;DHT22;58877;51.992;4.504;2022-12-18T10:14:57;-1.71;79.08
71177;DHT22;58877;51.992;4.504;2022-12-18T10:23:17;-1.61;78.81
71177;DHT22;58877;51.992;4.504;2022-12-18T10:26:07;-1.54;79.12
71177;DHT22;58877;51.992;4.504;2022-12-18T10:28:34;-1.47;78.96
71177;DHT22;58877;51.992;4.504;2022-12-18T10:31:00;-1.38;79.18
71177;DHT22;58877;51.992;4.504;2022-12-18T10:33:33;-1.27;78.75
71177;DHT22;58877;51.992;4.504;2022-12-18T10:35:59;-1.34;78.29
71177;DHT22;58877;51.992;4.504;2022-12-18T10:38:30;-1.30;78.46
71177;DHT22;58877;51.992;4.504;2022-12-18T10:43:38;-1.32;78.11
71177;DHT22;58877;51.992;4.504;2022-12-18T10:48:52;-1.22;78.18
71177;DHT22;58877;51.992;4.504;2022-12-18T10:51:24;-1.24;78.41
71177;DHT22;58877;51.992;4.504;2022-12-18T10:53:59;-1.10;78.38
71177;DHT22;58877;51.992;4.504;2022-12-18T10:56:31;-1.08;78.01
71177;DHT22;58877;51.992;4.504;2022-12-18T10:59:12;-1.00;78.20
71177;DHT22;58877;51.992;4.504;2022-12-18T11:01:50;-0.94;78.08
71177;DHT22;58877;51.992;4.504;2022-12-18T11:04:20;-0.84;78.18
71177;DHT22;58877;51.992;4.504;2022-12-18T11:07:12;-0.83;77.02
71177;DHT22;58877;51.992;4.504;2022-12-18T11:09:39;-0.80;77.62
71177;DHT22;58877;51.992;4.504;2022-12-18T11:12:18;-0.69;77.70
71177;DHT22;58877;51.992;4.504;2022-12-18T11:14:46;-0.63;77.50
71177;DHT22;58877;51.992;4.504;2022-12-18T11:17:32;-0.59;77.54
71177;DHT22;58877;51.992;4.504;2022-12-18T11:20:05;-0.52;77.59
71177;DHT22;58877;51.992;4.504;2022-12-18T11:22:36;-0.42;77.54
71177;DHT22;58877;51.992;4.504;2022-12-18T11:25:18;-0.32;77.17
71177;DHT22;58877;51.992;4.504;2022-12-18T11:28:26;-0.30;76.89
71177;DHT22;58877;51.992;4.504;2022-12-18T11:31:17;-0.35;76.71
71177;DHT22;58877;51.992;4.504;2022-12-18T11:34:25;-0.28;77.05
71177;DHT22;58877;51.992;4.504;2022-12-18T11:36:54;-0.30;76.94
71177;DHT22;58877;51.992;4.504;2022-12-18T11:39:34;-0.30;76.39
71177;DHT22;58877;51.992;4.504;2022-12-18T11:42:16;-0.43;76.78
71177;DHT22;58877;51.992;4.504;2022-12-18T11:44:52;-0.37;77.09
71177;DHT22;58877;51.992;4.504;2022-12-18T11:50:20;-0.48;77.45
71177;DHT22;58877;51.992;4.504;2022-12-18T11:52:47;-0.45;77.58
71177;DHT22;58877;51.992;4.504;2022-12-18T11:55:16;-0.42;76.95
71177;DHT22;58877;51.992;4.504;2022-12-18T12:00:21;-0.36;77.00
71177;DHT22;58877;51.992;4.504;2022-12-18T12:05:57;-0.33;77.21
71177;DHT22;58877;51.992;4.504;2022-12-18T12:11:31;-0.33;77.20
71177;DHT22;58877;51.992;4.504;2022-12-18T12:19:46;-0.16;76.34
71177;DHT22;58877;51.992;4.504;2022-12-18T12:25:35;-0.11;76.47
71177;DHT22;58877;51.992;4.504;2022-12-18T12:39:29;-0.01;75.89
71177;DHT22;58877;51.992;4.504;2022-12-18T12:41:57;-0.02;75.42
71177;DHT22;58877;51.992;4.504;2022-12-18T12:44:47;-0.05;76.06
71177;DHT22;58877;51.992;4.504;2022-12-18T12:47:35;-0.02;76.26
71177;DHT22;58877;51.992;4.504;2022-12-18T12:50:12;0.03;76.42
71177;DHT22;58877;51.992;4.504;2022-12-18T12:52:55;0.08;75.63
71177;DHT22;58877;51.992;4.504;2022-12-18T12:55:27;0.15;75.87
71177;DHT22;58877;51.992;4.504;2022-12-18T12:58:02;0.18;75.70
71177;DHT22;58877;51.992;4.504;2022-12-18T13:00:46;0.18;75.70
71177;DHT22;58877;51.992;4.504;2022-12-18T13:06:29;0.28;75.94
71177;DHT22;58877;51.992;4.504;2022-12-18T13:09:00;0.32;75.73
71177;DHT22;58877;51.992;4.504;2022-12-18T13:11:44;0.29;75.50
71177;DHT22;58877;51.992;4.504;2022-12-18T13:17:27;0.30;75.74
71177;DHT22;58877;51.992;4.504;2022-12-18T13:20:10;0.30;75.53
71177;DHT22;58877;51.992;4.504;2022-12-18T13:22:49;0.33;75.73
71177;DHT22;58877;51.992;4.504;2022-12-18T13:28:00;0.32;75.94
71177;DHT22;58877;51.992;4.504;2022-12-18T13:30:54;0.29;76.00
71177;DHT22;58877;51.992;4.504;2022-12-18T13:36:14;0.28;76.01
71177;DHT22;58877;51.992;4.504;2022-12-18T13:38:41;0.22;75.94
71177;DHT22;58877;51.992;4.504;2022-12-18T13:41:31;0.20;76.20
71177;DHT22;58877;51.992;4.504;2022-12-18T13:43:58;0.26;76.49
71177;DHT22;58877;51.992;4.504;2022-12-18T13:46:46;0.32;76.20
71177;DHT22;58877;51.992;4.504;2022-12-18T13:51:56;0.25;76.47
71177;DHT22;58877;51.992;4.504;2022-12-18T13:55:04;0.22;76.28
71177;DHT22;58877;51.992;4.504;2022-12-18T13:57:36;0.28;76.60
71177;DHT22;58877;51.992;4.504;2022-12-18T14:02:48;0.42;76.11
71177;DHT22;58877;51.992;4.504;2022-12-18T14:05:34;0.40;76.08
71177;DHT22;58877;51.992;4.504;2022-12-18T14:08:11;0.39;75.97
71177;DHT22;58877;51.992;4.504;2022-12-18T14:14:01;0.39;75.65
71177;DHT22;58877;51.992;4.504;2022-12-18T14:16:27;0.39;75.72
71177;DHT22;58877;51.992;4.504;2022-12-18T14:18:57;0.40;75.63
71177;DHT22;58877;51.992;4.504;2022-12-18T14:21:27;0.30;75.91
71177;DHT22;58877;51.992;4.504;2022-12-18T14:24:16;0.30;75.98
71177;DHT22;58877;51.992;4.504;2022-12-18T14:26:46;0.29;76.08
71177;DHT22;58877;51.992;4.504;2022-12-18T14:29:25;0.22;76.19
71177;DHT22;58877;51.992;4.504;2022-12-18T14:32:11;0.26;76.17
71177;DHT22;58877;51.992;4.504;2022-12-18T14:34:39;0.32;76.06
71177;DHT22;58877;51.992;4.504;2022-12-18T14:37:08;0.32;76.06
71177;DHT22;58877;51.992;4.504;2022-12-18T14:39:37;0.32;76.29
71177;DHT22;58877;51.992;4.504;2022-12-18T14:42:11;0.30;76.08
71177;DHT22;58877;51.992;4.504;2022-12-18T14:44:37;0.28;76.26
71177;DHT22;58877;51.992;4.504;2022-12-18T14:47:02;0.26;76.44
71177;DHT22;58877;51.992;4.504;2022-12-18T14:49:34;0.29;76.60
71177;DHT22;58877;51.992;4.504;2022-12-18T14:52:13;0.33;76.43
71177;DHT22;58877;51.992;4.504;2022-12-18T14:54:47;0.35;76.30
71177;DHT22;58877;51.992;4.504;2022-12-18T14:57:35;0.28;76.16
71177;DHT22;58877;51.992;4.504;2022-12-18T15:00:07;0.26;76.51
71177;DHT22;58877;51.992;4.504;2022-12-18T15:02:36;0.32;76.23
71177;DHT22;58877;51.992;4.504;2022-12-18T15:05:18;0.32;76.23
71177;DHT22;58877;51.992;4.504;2022-12-18T15:07:45;0.40;75.95
71177;DHT22;58877;51.992;4.504;2022-12-18T15:10:15;0.45;75.97
71177;DHT22;58877;51.992;4.504;2022-12-18T15:12:50;0.43;76.12
71177;DHT22;58877;51.992;4.504;2022-12-18T15:23:48;0.40;75.66
71177;DHT22;58877;51.992;4.504;2022-12-18T15:26:20;0.45;75.52
71177;DHT22;58877;51.992;4.504;2022-12-18T15:36:18;0.50;75.32
71177;DHT22;58877;51.992;4.504;2022-12-18T15:38:49;0.56;75.37
71177;DHT22;58877;51.992;4.504;2022-12-18T15:41:18;0.62;75.18
71177;DHT22;58877;51.992;4.504;2022-12-18T15:43:49;0.63;74.98
71177;DHT22;58877;51.992;4.504;2022-12-18T15:46:19;0.63;74.81
71177;DHT22;58877;51.992;4.504;2022-12-18T15:48:47;0.67;74.93
71177;DHT22;58877;51.992;4.504;2022-12-18T15:51:17;0.69;74.84
71177;DHT22;58877;51.992;4.504;2022-12-18T15:53:49;0.72;74.49
71177;DHT22;58877;51.992;4.504;2022-12-18T15:56:16;0.74;74.25
71177;DHT22;58877;51.992;4.504;2022-12-18T15:59:01;0.77;73.96
71177;DHT22;58877;51.992;4.504;2022-12-18T16:01:29;0.80;73.68
71177;DHT22;58877;51.992;4.504;2022-12-18T16:03:57;0.77;73.57
71177;DHT22;58877;51.992;4.504;2022-12-18T16:06:23;0.79;73.33
71177;DHT22;58877;51.992;4.504;2022-12-18T16:08:51;0.79;73.16
71177;DHT22;58877;51.992;4.504;2022-12-18T16:11:24;0.83;72.94
71177;DHT22;58877;51.992;4.504;2022-12-18T16:14:23;0.85;72.71
71177;DHT22;58877;51.992;4.504;2022-12-18T16:16:52;0.90;72.43
71177;DHT22;58877;51.992;4.504;2022-12-18T16:19:18;0.87;72.32
71177;DHT22;58877;51.992;4.504;2022-12-18T16:21:46;0.90;72.33
71177;DHT22;58877;51.992;4.504;2022-12-18T16:24:19;0.93;72.42
71177;DHT22;58877;51.992;4.504;2022-12-18T16:26:51;0.98;72.36
71177;DHT22;58877;51.992;4.504;2022-12-18T16:29:18;1.01;72.35
71177;DHT22;58877;51.992;4.504;2022-12-18T16:31:44;0.98;72.25
71177;DHT22;58877;51.992;4.504;2022-12-18T16:34:23;1.07;72.07
71177;DHT22;58877;51.992;4.504;2022-12-18T16:36:52;1.07;72.21
71177;DHT22;58877;51.992;4.504;2022-12-18T16:39:19;1.11;72.21
71177;DHT22;58877;51.992;4.504;2022-12-18T16:41:46;1.08;72.16
71177;DHT22;58877;51.992;4.504;2022-12-18T16:44:12;1.08;72.20
71177;DHT22;58877;51.992;4.504;2022-12-18T16:46:38;1.01;72.52
71177;DHT22;58877;51.992;4.504;2022-12-18T16:49:15;1.07;72.45
71177;DHT22;58877;51.992;4.504;2022-12-18T16:51:41;1.07;72.40
71177;DHT22;58877;51.992;4.504;2022-12-18T16:54:07;1.15;72.37
71177;DHT22;58877;51.992;4.504;2022-12-18T16:56:33;1.13;72.56
71177;DHT22;58877;51.992;4.504;2022-12-18T16:59:00;1.13;72.51
71177;DHT22;58877;51.992;4.504;2022-12-18T17:01:28;1.07;72.64
71177;DHT22;58877;51.992;4.504;2022-12-18T17:04:05;1.03;72.66
71177;DHT22;58877;51.992;4.504;2022-12-18T17:06:34;1.09;72.89
71177;DHT22;58877;51.992;4.504;2022-12-18T17:09:23;1.14;73.02
71177;DHT22;58877;51.992;4.504;2022-12-18T17:11:51;1.17;72.91
71177;DHT22;58877;51.992;4.504;2022-12-18T17:14:20;1.15;72.97
71177;DHT22;58877;51.992;4.504;2022-12-18T17:16:47;1.21;73.00
71177;DHT22;58877;51.992;4.504;2022-12-18T17:19:16;1.13;73.01
71177;DHT22;58877;51.992;4.504;2022-12-18T17:21:43;1.09;73.14
71177;DHT22;58877;51.992;4.504;2022-12-18T17:24:10;1.08;73.23
71177;DHT22;58877;51.992;4.504;2022-12-18T17:26:36;1.05;73.67
71177;DHT22;58877;51.992;4.504;2022-12-18T17:29:02;1.08;73.56
71177;DHT22;58877;51.992;4.504;2022-12-18T17:31:29;1.18;73.53
71177;DHT22;58877;51.992;4.504;2022-12-18T17:33:55;1.14;73.63
71177;DHT22;58877;51.992;4.504;2022-12-18T17:36:22;1.18;73.59
71177;DHT22;58877;51.992;4.504;2022-12-18T17:38:54;1.23;73.19